createdAt,value
2023-01-19T00:01:07.148Z,6.00
2023-01-19T00:03:42.307Z,7.97
2023-01-19T00:10:24.507Z,8.38
2023-01-19T00:13:06.737Z,15.85
2023-01-19T00:16:01.643Z,8.98
2023-01-19T00:18:39.232Z,7.30
2023-01-19T00:21:10.945Z,7.47
2023-01-19T00:23:54.700Z,7.20
2023-01-19T00:26:27.970Z,5.78
2023-01-19T00:28:56.721Z,5.20
2023-01-19T00:31:25.151Z,4.65
2023-01-19T00:33:53.193Z,4.78
2023-01-19T00:36:21.193Z,6.55
2023-01-19T00:38:49.106Z,4.87
2023-01-19T00:41:28.822Z,5.53
2023-01-19T00:43:58.536Z,7.40
2023-01-19T00:46:27.707Z,5.87
2023-01-19T00:49:00.877Z,6.78
2023-01-19T00:51:32.654Z,6.37
2023-01-19T00:54:02.490Z,6.00
2023-01-19T00:56:31.865Z,3.75
2023-01-19T00:59:00.171Z,4.58
2023-01-19T01:01:45.173Z,4.58
2023-01-19T01:04:23.570Z,4.03
2023-01-19T01:07:05.346Z,4.37
2023-01-19T01:09:45.753Z,5.95
2023-01-19T01:12:30.040Z,7.08
2023-01-19T01:15:08.362Z,10.80
2023-01-19T01:17:52.132Z,18.45
2023-01-19T01:20:26.600Z,11.63
2023-01-19T01:22:56.061Z,10.13
2023-01-19T01:25:27.108Z,10.53
2023-01-19T01:27:55.193Z,10.43
2023-01-19T01:30:23.895Z,7.35
2023-01-19T01:32:52.032Z,7.47
2023-01-19T01:35:20.204Z,4.97
2023-01-19T01:37:48.332Z,4.80
2023-01-19T01:40:18.932Z,4.85
2023-01-19T01:42:47.168Z,5.45
2023-01-19T01:45:40.008Z,5.55
2023-01-19T01:48:22.814Z,5.53
2023-01-19T01:51:26.191Z,6.15
2023-01-19T01:54:06.722Z,8.08
2023-01-19T01:56:43.090Z,8.18
2023-01-19T01:59:25.460Z,8.80
2023-01-19T02:02:14.834Z,9.75
2023-01-19T02:05:01.417Z,7.53
2023-01-19T02:08:22.788Z,7.00
2023-01-19T02:11:14.326Z,8.48
2023-01-19T02:13:47.571Z,9.23
2023-01-19T02:16:17.973Z,8.03
2023-01-19T02:18:46.658Z,6.92
2023-01-19T02:21:31.895Z,5.87
2023-01-19T02:24:02.648Z,5.78
2023-01-19T02:26:38.146Z,8.88
2023-01-19T02:29:16.655Z,4.17
2023-01-19T02:31:45.804Z,7.42
2023-01-19T02:34:20.206Z,5.45
2023-01-19T02:37:00.540Z,5.22
2023-01-19T02:39:38.681Z,9.58
2023-01-19T02:42:15.051Z,10.30
2023-01-19T02:44:48.134Z,10.72
2023-01-19T02:47:16.566Z,7.70
2023-01-19T02:49:44.661Z,8.70
2023-01-19T02:52:18.137Z,6.60
2023-01-19T02:55:06.781Z,7.10
2023-01-19T02:57:43.426Z,5.72
2023-01-19T03:00:32.219Z,7.05
2023-01-19T03:03:21.974Z,7.33
2023-01-19T03:06:06.046Z,5.83
2023-01-19T03:09:05.824Z,5.83
2023-01-19T03:11:38.780Z,5.90
2023-01-19T03:14:11.865Z,8.18
2023-01-19T03:16:53.033Z,5.12
2023-01-19T03:19:37.830Z,6.53
2023-01-19T03:22:14.241Z,8.10
2023-01-19T03:24:54.921Z,9.88
2023-01-19T03:27:32.322Z,5.83
2023-01-19T03:30:13.031Z,7.65
2023-01-19T03:32:53.697Z,6.95
2023-01-19T03:35:26.424Z,7.47
2023-01-19T03:37:57.739Z,7.87
2023-01-19T03:40:29.546Z,6.47
2023-01-19T03:43:00.135Z,8.73
2023-01-19T03:45:30.480Z,7.00
2023-01-19T03:48:00.196Z,6.90
2023-01-19T03:50:30.516Z,9.05
2023-01-19T03:53:12.137Z,8.48
2023-01-19T03:55:43.396Z,8.40
2023-01-19T03:58:11.765Z,10.03
2023-01-19T04:00:55.676Z,7.90
2023-01-19T04:03:53.663Z,14.60
2023-01-19T04:06:41.815Z,11.93
2023-01-19T04:09:35.252Z,10.38
2023-01-19T04:15:19.951Z,17.00
2023-01-19T04:17:47.972Z,18.65
2023-01-19T04:20:16.402Z,17.40
2023-01-19T04:22:44.415Z,16.97
2023-01-19T04:25:12.510Z,13.75
2023-01-19T04:27:40.502Z,12.60
2023-01-19T04:30:10.054Z,12.37
2023-01-19T04:32:38.310Z,11.05
2023-01-19T04:35:06.841Z,13.98
2023-01-19T04:37:35.176Z,11.78
2023-01-19T04:40:08.146Z,11.48
2023-01-19T04:42:36.116Z,10.48
2023-01-19T04:45:04.804Z,10.58
2023-01-19T04:47:33.055Z,10.68
2023-01-19T04:50:05.228Z,13.25
2023-01-19T04:52:38.648Z,11.40
2023-01-19T04:55:11.780Z,15.10
2023-01-19T04:57:39.971Z,13.43
2023-01-19T05:00:09.822Z,11.83
2023-01-19T05:02:38.192Z,11.03
2023-01-19T05:05:07.278Z,15.70
2023-01-19T05:07:35.513Z,12.63
2023-01-19T05:10:04.631Z,11.93
2023-01-19T05:12:35.508Z,11.50
2023-01-19T05:15:07.208Z,10.50
2023-01-19T05:17:42.142Z,10.55
2023-01-19T05:20:16.468Z,11.35
2023-01-19T05:22:53.003Z,10.90
2023-01-19T05:25:21.254Z,10.23
2023-01-19T05:27:49.174Z,12.23
2023-01-19T05:30:17.815Z,11.43
2023-01-19T05:32:48.679Z,17.67
2023-01-19T05:35:20.115Z,11.73
2023-01-19T05:37:46.733Z,14.23
2023-01-19T05:40:14.596Z,13.30
2023-01-19T05:42:42.506Z,14.55
2023-01-19T05:45:12.014Z,17.32
2023-01-19T05:47:40.151Z,15.45
2023-01-19T05:50:08.955Z,18.12
2023-01-19T05:52:37.082Z,15.95
2023-01-19T05:55:06.021Z,16.93
2023-01-19T05:57:34.477Z,18.77
2023-01-19T06:00:04.522Z,18.82
2023-01-19T06:02:35.240Z,17.92
2023-01-19T06:05:04.579Z,18.67
2023-01-19T06:07:34.527Z,18.95
2023-01-19T06:10:02.965Z,22.93
2023-01-19T06:12:31.945Z,20.02
2023-01-19T06:14:59.993Z,37.00
2023-01-19T06:17:28.231Z,27.87
2023-01-19T06:19:57.424Z,17.77
2023-01-19T06:22:25.541Z,15.53
2023-01-19T06:24:54.616Z,17.23
2023-01-19T06:27:23.265Z,16.25
2023-01-19T06:29:51.351Z,18.00
2023-01-19T06:32:20.101Z,20.37
2023-01-19T06:34:49.124Z,18.95
2023-01-19T06:37:17.194Z,20.12
2023-01-19T06:39:45.008Z,16.35
2023-01-19T06:42:12.659Z,15.18
2023-01-19T06:44:42.458Z,14.68
2023-01-19T06:47:15.382Z,13.45
2023-01-19T06:49:41.976Z,9.98
2023-01-19T06:52:11.788Z,10.60
2023-01-19T06:54:39.627Z,13.65
2023-01-19T06:57:09.991Z,16.37
2023-01-19T06:59:38.422Z,19.23
2023-01-19T07:02:26.714Z,21.07
2023-01-19T07:04:36.284Z,35.00
2023-01-19T07:07:04.293Z,21.00
2023-01-19T07:09:32.113Z,41.90
2023-01-19T07:11:59.935Z,37.25
2023-01-19T07:14:29.648Z,20.70
2023-01-19T07:16:57.287Z,13.53
2023-01-19T07:19:25.109Z,15.08
2023-01-19T07:21:52.781Z,12.63
2023-01-19T07:24:21.298Z,14.80
2023-01-19T07:26:50.056Z,15.03
2023-01-19T07:29:17.810Z,18.20
2023-01-19T07:31:48.075Z,15.68
2023-01-19T07:34:16.008Z,18.35
2023-01-19T07:36:43.722Z,18.00
2023-01-19T07:39:11.572Z,14.13
2023-01-19T07:41:39.541Z,16.87
2023-01-19T07:44:08.326Z,16.45
2023-01-19T07:46:36.271Z,15.05
2023-01-19T07:49:04.271Z,15.48
2023-01-19T07:51:32.065Z,13.65
2023-01-19T07:53:59.639Z,15.13
2023-01-19T07:56:30.780Z,14.30
2023-01-19T07:58:59.474Z,16.02
2023-01-19T08:01:27.476Z,14.63
2023-01-19T08:03:55.387Z,15.08
2023-01-19T08:06:35.251Z,18.15
2023-01-19T08:09:05.176Z,28.75
2023-01-19T08:11:33.808Z,24.05
2023-01-19T08:14:01.994Z,21.25
2023-01-19T08:16:29.861Z,23.70
2023-01-19T08:18:57.633Z,26.65
2023-01-19T08:21:25.491Z,24.25
2023-01-19T08:23:57.887Z,19.90
2023-01-19T08:26:33.316Z,21.15
2023-01-19T08:29:05.260Z,22.35
2023-01-19T08:31:33.372Z,22.13
2023-01-19T08:34:01.271Z,21.97
2023-01-19T08:36:30.056Z,23.22
2023-01-19T08:38:57.806Z,25.00
2023-01-19T08:41:25.660Z,28.12
2023-01-19T08:43:55.159Z,20.52
2023-01-19T08:46:22.846Z,20.92
2023-01-19T08:48:50.658Z,22.35
2023-01-19T08:51:19.291Z,24.15
2023-01-19T08:53:47.254Z,27.22
2023-01-19T08:56:15.039Z,28.05
2023-01-19T08:58:53.624Z,28.42
2023-01-19T09:01:18.165Z,28.62
2023-01-19T09:03:46.475Z,31.62
2023-01-19T09:06:19.310Z,28.40
2023-01-19T09:08:47.687Z,29.05
2023-01-19T09:11:17.029Z,26.65
2023-01-19T09:13:44.911Z,30.35
2023-01-19T09:16:14.454Z,25.75
2023-01-19T09:18:42.569Z,27.70
2023-01-19T09:21:10.479Z,35.90
2023-01-19T09:23:38.316Z,46.45
2023-01-19T09:26:06.635Z,53.10
2023-01-19T09:28:34.749Z,52.70
2023-01-19T09:31:09.167Z,52.13
2023-01-19T09:33:37.191Z,54.40
2023-01-19T09:36:05.189Z,47.00
2023-01-19T09:38:33.651Z,48.42
2023-01-19T09:41:01.600Z,42.27
2023-01-19T09:43:54.770Z,40.88
2023-01-19T09:46:36.465Z,66.22
2023-01-19T09:49:21.253Z,37.35
2023-01-19T09:51:50.465Z,48.98
2023-01-19T09:54:35.981Z,35.55
2023-01-19T09:57:10.792Z,21.27
2023-01-19T09:59:38.590Z,23.53
2023-01-19T10:02:30.061Z,27.30
2023-01-19T10:05:06.428Z,25.90
2023-01-19T10:07:47.609Z,18.40
2023-01-19T10:10:22.648Z,27.30
2023-01-19T10:16:34.203Z,26.87
2023-01-19T10:19:35.481Z,29.45
2023-01-19T10:22:25.799Z,24.60
2023-01-19T10:25:05.313Z,37.08
2023-01-19T10:27:37.096Z,23.05
2023-01-19T10:30:09.725Z,25.15
2023-01-19T10:32:39.354Z,20.95
2023-01-19T10:35:19.010Z,30.97
2023-01-19T10:37:47.119Z,32.40
2023-01-19T10:40:37.442Z,29.32
2023-01-19T10:43:44.622Z,26.87
2023-01-19T10:46:24.067Z,23.27
2023-01-19T10:48:54.332Z,29.27
2023-01-19T10:51:22.989Z,27.17
2023-01-19T10:54:03.163Z,32.35
2023-01-19T10:56:34.825Z,35.45
2023-01-19T10:59:06.258Z,40.40
2023-01-19T11:01:36.292Z,21.12
2023-01-19T11:04:29.403Z,28.15
2023-01-19T11:07:05.393Z,26.23
2023-01-19T11:09:34.849Z,23.67
2023-01-19T11:12:02.787Z,30.85
2023-01-19T11:14:31.597Z,35.78
2023-01-19T11:16:59.349Z,34.70
2023-01-19T11:19:32.760Z,33.95
2023-01-19T11:22:21.618Z,37.48
2023-01-19T11:24:50.224Z,33.28
2023-01-19T11:27:21.603Z,42.13
2023-01-19T11:30:01.378Z,36.42
2023-01-19T11:32:29.900Z,30.02
2023-01-19T11:34:59.817Z,38.75
2023-01-19T11:37:34.141Z,34.38
2023-01-19T11:40:06.614Z,31.00
2023-01-19T11:42:36.719Z,36.25
2023-01-19T11:45:12.900Z,22.10
2023-01-19T11:47:48.925Z,26.68
2023-01-19T11:50:31.352Z,32.03
2023-01-19T11:53:24.561Z,28.32
2023-01-19T11:56:15.028Z,30.30
2023-01-19T11:58:46.911Z,28.02
2023-01-19T12:01:29.241Z,22.20
2023-01-19T12:04:16.589Z,29.25
2023-01-19T12:06:55.466Z,39.40
2023-01-19T12:09:30.809Z,24.98
2023-01-19T12:12:24.433Z,21.62
2023-01-19T12:15:03.763Z,25.23
2023-01-19T12:17:45.605Z,29.63
2023-01-19T12:20:30.663Z,36.33
2023-01-19T12:23:04.168Z,36.08
2023-01-19T12:26:08.639Z,34.48
2023-01-19T12:28:43.327Z,24.27
2023-01-19T12:31:18.961Z,26.95
2023-01-19T12:33:47.669Z,29.72
2023-01-19T12:36:37.404Z,25.88
2023-01-19T12:39:19.786Z,47.90
2023-01-19T12:42:04.356Z,39.23
2023-01-19T12:44:33.703Z,36.03
2023-01-19T12:47:13.246Z,29.70
2023-01-19T12:49:55.603Z,47.70
2023-01-19T12:52:35.908Z,30.70
2023-01-19T12:55:24.200Z,31.10
2023-01-19T12:58:12.058Z,41.35
2023-01-19T13:00:43.885Z,45.08
2023-01-19T13:03:29.302Z,36.75
2023-01-19T13:05:57.582Z,43.30
2023-01-19T13:08:49.863Z,46.30
2023-01-19T13:11:19.759Z,70.32
2023-01-19T13:14:02.388Z,34.60
2023-01-19T13:16:38.587Z,33.55
2023-01-19T13:19:20.359Z,21.87
2023-01-19T13:21:49.174Z,12.37
2023-01-19T13:24:23.071Z,12.65
2023-01-19T13:26:55.155Z,18.25
2023-01-19T13:29:41.598Z,14.20
2023-01-19T13:32:21.410Z,14.93
2023-01-19T13:34:57.029Z,16.55
2023-01-19T13:37:33.296Z,13.45
2023-01-19T13:40:02.849Z,23.02
2023-01-19T13:42:41.239Z,12.60
2023-01-19T13:45:30.385Z,18.82
2023-01-19T13:48:02.669Z,15.72
2023-01-19T13:50:34.287Z,14.60
2023-01-19T13:53:04.072Z,9.53
2023-01-19T13:55:31.850Z,10.40
2023-01-19T13:57:59.437Z,9.63
2023-01-19T14:00:30.387Z,10.35
2023-01-19T14:03:06.568Z,6.42
2023-01-19T14:05:38.058Z,8.20
2023-01-19T14:08:14.429Z,8.58
2023-01-19T14:11:01.075Z,7.92
2023-01-19T14:13:33.127Z,9.33
2023-01-19T14:16:05.217Z,7.25
2023-01-19T14:18:36.376Z,13.60
2023-01-19T14:21:11.694Z,13.25
2023-01-19T14:23:57.401Z,11.55
2023-01-19T14:26:46.827Z,14.33
2023-01-19T14:29:34.253Z,13.22
2023-01-19T14:32:27.356Z,13.75
2023-01-19T14:35:03.833Z,16.50
2023-01-19T14:37:37.337Z,14.47
2023-01-19T14:40:14.513Z,17.12
2023-01-19T14:43:00.089Z,22.62
2023-01-19T14:45:36.154Z,20.27
2023-01-19T14:48:16.369Z,18.20
2023-01-19T14:50:57.665Z,28.62
2023-01-19T14:53:25.390Z,27.15
2023-01-19T14:56:04.549Z,29.12
2023-01-19T14:58:40.879Z,33.95
2023-01-19T15:01:15.804Z,22.93
2023-01-19T15:03:45.651Z,23.77
2023-01-19T15:06:17.329Z,37.15
2023-01-19T15:08:46.273Z,25.02
2023-01-19T15:11:33.829Z,16.50
2023-01-19T15:14:02.360Z,11.63
2023-01-19T15:16:34.683Z,12.82
2023-01-19T15:19:03.355Z,11.08
2023-01-19T15:21:31.137Z,15.80
2023-01-19T15:23:59.907Z,13.08
2023-01-19T15:26:28.114Z,12.23
2023-01-19T15:28:57.017Z,13.32
2023-01-19T15:31:27.182Z,9.35
2023-01-19T15:33:55.797Z,13.72
2023-01-19T15:36:26.330Z,11.50
2023-01-19T15:38:56.188Z,11.60
2023-01-19T15:41:29.295Z,12.05
2023-01-19T15:43:57.889Z,11.30
2023-01-19T15:46:26.631Z,10.95
2023-01-19T15:48:54.786Z,10.25
2023-01-19T15:51:25.917Z,7.45
2023-01-19T15:53:55.134Z,6.60
2023-01-19T15:56:27.341Z,5.28
2023-01-19T15:58:56.299Z,10.13
2023-01-19T16:01:34.763Z,7.12
2023-01-19T16:04:06.353Z,8.28
2023-01-19T16:06:34.421Z,10.80
2023-01-19T16:09:03.922Z,8.88
2023-01-19T16:11:34.943Z,12.15
2023-01-19T16:14:03.072Z,9.23
2023-01-19T16:16:31.010Z,9.08
2023-01-19T16:18:58.748Z,7.92
2023-01-19T16:21:26.923Z,9.95
2023-01-19T16:23:55.315Z,5.62
2023-01-19T16:26:34.322Z,7.70
2023-01-19T16:29:09.272Z,12.53
2023-01-19T16:31:39.459Z,14.30
2023-01-19T16:34:09.292Z,11.30
2023-01-19T16:36:40.416Z,13.38
2023-01-19T16:39:14.189Z,15.85
2023-01-19T16:41:47.945Z,15.72
2023-01-19T16:44:17.329Z,11.78
2023-01-19T16:46:50.479Z,17.27
2023-01-19T16:49:22.429Z,16.12
2023-01-19T16:51:52.928Z,25.08
2023-01-19T16:54:25.950Z,9.55
2023-01-19T16:57:00.981Z,4.63
2023-01-19T16:59:31.882Z,3.08
2023-01-19T17:02:00.250Z,5.17
2023-01-19T17:04:29.563Z,5.05
2023-01-19T17:07:03.551Z,7.80
2023-01-19T17:09:32.042Z,5.15
2023-01-19T17:12:00.001Z,5.30
2023-01-19T17:14:29.522Z,3.95
2023-01-19T17:17:02.798Z,8.15
2023-01-19T17:19:31.112Z,11.30
2023-01-19T17:21:59.161Z,9.68
2023-01-19T17:24:27.335Z,10.32
2023-01-19T17:27:04.828Z,11.03
2023-01-19T17:29:35.247Z,5.85
2023-01-19T17:32:05.478Z,5.03
2023-01-19T17:34:33.614Z,6.45
2023-01-19T17:37:02.407Z,10.85
2023-01-19T17:39:32.058Z,5.80
2023-01-19T17:42:01.956Z,5.58
2023-01-19T17:44:30.442Z,4.83
2023-01-19T17:47:00.013Z,6.62
2023-01-19T17:49:37.415Z,5.67
2023-01-19T17:52:05.657Z,4.97
2023-01-19T17:54:33.802Z,4.20
2023-01-19T17:57:02.310Z,5.83
2023-01-19T17:59:32.206Z,3.00
2023-01-19T18:02:00.539Z,4.60
2023-01-19T18:04:32.298Z,2.62
2023-01-19T18:07:00.443Z,13.80
2023-01-19T18:09:29.926Z,18.05
2023-01-19T18:11:58.167Z,16.82
2023-01-19T18:14:26.155Z,15.68
2023-01-19T18:16:54.365Z,15.32
2023-01-19T18:19:25.310Z,5.25
2023-01-19T18:21:53.492Z,12.90
2023-01-19T18:24:21.384Z,9.08
2023-01-19T18:26:51.280Z,7.22
2023-01-19T18:29:20.133Z,8.15
2023-01-19T18:31:48.178Z,15.65
2023-01-19T18:34:16.371Z,9.68
2023-01-19T18:36:47.317Z,12.00
2023-01-19T18:39:19.597Z,16.82
2023-01-19T18:41:48.414Z,13.88
2023-01-19T18:44:18.379Z,11.60
2023-01-19T18:46:47.462Z,13.53
2023-01-19T18:49:17.473Z,17.87
2023-01-19T18:51:45.769Z,16.97
2023-01-19T18:54:13.855Z,24.47
2023-01-19T18:56:42.101Z,14.98
2023-01-19T18:59:11.657Z,15.05
2023-01-19T19:01:40.451Z,8.13
2023-01-19T19:04:08.260Z,7.87
2023-01-19T19:06:36.005Z,7.05
2023-01-19T19:09:04.739Z,10.32
2023-01-19T19:11:32.844Z,6.97
2023-01-19T19:14:02.262Z,6.80
2023-01-19T19:16:31.674Z,68.25
2023-01-19T19:19:00.907Z,28.57
2023-01-19T19:21:28.850Z,24.57
2023-01-19T19:24:10.117Z,26.17
2023-01-19T19:26:38.045Z,31.17
2023-01-19T19:29:06.092Z,32.78
2023-01-19T19:31:33.955Z,30.65
2023-01-19T19:34:01.654Z,33.25
2023-01-19T19:36:29.987Z,32.33
2023-01-19T19:39:13.530Z,28.47
2023-01-19T19:41:42.221Z,31.00
2023-01-19T19:44:14.836Z,40.17
2023-01-19T19:46:42.914Z,33.83
2023-01-19T19:49:11.568Z,27.65
2023-01-19T19:51:41.617Z,31.35
2023-01-19T19:54:09.413Z,28.70
2023-01-19T19:56:38.204Z,32.80
2023-01-19T19:59:07.151Z,33.73
2023-01-19T20:01:35.156Z,36.60
2023-01-19T20:04:10.762Z,34.90
2023-01-19T20:06:44.160Z,26.40
2023-01-19T20:09:13.804Z,27.02
2023-01-19T20:11:43.499Z,26.68
2023-01-19T20:14:12.912Z,39.03
2023-01-19T20:16:40.766Z,36.35
2023-01-19T20:19:09.940Z,43.92
2023-01-19T20:21:41.313Z,25.27
2023-01-19T20:24:16.704Z,37.35
2023-01-19T20:26:52.519Z,32.63
2023-01-19T20:29:20.648Z,37.35
2023-01-19T20:31:54.971Z,14.98
2023-01-19T20:34:27.390Z,25.08
2023-01-19T20:36:56.054Z,27.60
2023-01-19T20:39:24.696Z,55.03
2023-01-19T20:41:53.064Z,24.18
2023-01-19T20:44:24.287Z,17.98
2023-01-19T20:46:53.986Z,20.10
2023-01-19T20:49:24.332Z,30.25
2023-01-19T20:51:53.228Z,23.30
2023-01-19T20:54:26.767Z,20.27
2023-01-19T20:56:56.726Z,16.20
2023-01-19T20:59:24.653Z,12.55
2023-01-19T21:01:52.911Z,12.78
2023-01-19T21:04:20.675Z,29.05
2023-01-19T21:06:48.453Z,15.23
2023-01-19T21:09:18.281Z,14.85
2023-01-19T21:11:52.500Z,13.28
2023-01-19T21:14:21.227Z,13.22
2023-01-19T21:16:50.167Z,12.80
2023-01-19T21:19:18.210Z,14.60
2023-01-19T21:21:46.119Z,11.35
2023-01-19T21:24:14.162Z,15.08
2023-01-19T21:26:42.519Z,13.83
2023-01-19T21:29:33.739Z,29.32
2023-01-19T21:32:20.920Z,38.85
2023-01-19T21:34:48.893Z,27.55
2023-01-19T21:37:16.895Z,29.98
2023-01-19T21:39:45.037Z,35.33
2023-01-19T21:42:15.845Z,41.25
2023-01-19T21:44:43.780Z,44.80
2023-01-19T21:47:11.724Z,42.17
2023-01-19T21:49:39.771Z,33.10
2023-01-19T21:52:11.341Z,27.80
2023-01-19T21:54:40.587Z,23.75
2023-01-19T21:57:09.090Z,15.80
2023-01-19T21:59:37.689Z,15.55
2023-01-19T22:02:05.710Z,16.80
2023-01-19T22:04:35.805Z,21.48
2023-01-19T22:07:03.798Z,19.40
2023-01-19T22:09:36.249Z,16.35
2023-01-19T22:12:05.787Z,10.08
2023-01-19T22:14:37.532Z,10.88
2023-01-19T22:17:11.123Z,8.88
2023-01-19T22:19:39.103Z,10.78
2023-01-19T22:22:09.367Z,7.80
2023-01-19T22:24:39.185Z,7.03
2023-01-19T22:27:08.608Z,7.17
2023-01-19T22:29:36.951Z,6.10
2023-01-19T22:32:05.779Z,4.50
2023-01-19T22:34:33.752Z,10.53
2023-01-19T22:37:02.159Z,11.55
2023-01-19T22:39:33.829Z,9.23
2023-01-19T22:42:14.910Z,10.93
2023-01-19T22:44:58.673Z,8.73
2023-01-19T22:47:32.363Z,9.25
2023-01-19T22:50:10.478Z,13.30
2023-01-19T22:52:38.843Z,11.95
2023-01-19T22:55:10.098Z,9.95
2023-01-19T22:57:41.360Z,9.15
2023-01-19T23:00:12.599Z,6.17
2023-01-19T23:02:42.850Z,7.50
2023-01-19T23:05:11.216Z,4.92
2023-01-19T23:07:41.539Z,7.85
2023-01-19T23:10:11.701Z,6.15
2023-01-19T23:12:42.663Z,6.37
2023-01-19T23:15:11.449Z,9.68
2023-01-19T23:17:41.242Z,8.93
2023-01-19T23:20:11.124Z,7.60
2023-01-19T23:22:45.413Z,5.87
2023-01-19T23:25:22.114Z,5.35
2023-01-19T23:27:57.650Z,3.90
2023-01-19T23:30:30.863Z,3.87
2023-01-19T23:33:04.960Z,4.45
2023-01-19T23:35:54.844Z,3.45
2023-01-19T23:38:22.368Z,5.40
2023-01-19T23:40:51.972Z,3.00
2023-01-19T23:43:20.128Z,3.62
2023-01-19T23:45:49.773Z,2.62
2023-01-19T23:51:49.068Z,4.47
2023-01-19T23:54:17.178Z,4.05
2023-01-19T23:56:45.664Z,2.85
2023-01-19T23:59:16.091Z,3.90
